DTTL

Kelibia Airport

Kelibia, Tunisia
METAR DTTL 181700Z AUTO VRB03G17KT NCD 27/25 Q1018
Observed Flight Rules
Sep-18 @ 17:00 UTC (31 minutes ago)
Wind Clouds
Variable at 3 knots
 Gusting to 17 knots
  • Clear skies
Temperatures Readings
Current 27°C / 81°F
Dewpoint 25°C / 77°F
Humidity 89%
Altimeter 30.06" Hg
Pressure 1018 hPa
Elevation 30
METAR DTTL 181700Z AUTO VRB03G17KT NCD 27/25 Q1018
Observed Flight Rules
Sep-18 @ 17:00 UTC
(31 minutes ago)
Wind
Variable at 3 knots
 Gusting to 17 knots
Clouds
  • Clear skies
Temperature Dewpoint
27°C / 81°F 25°C / 77°F
Humidity Altimeter Pressure
89% 30.06" Hg 1018 hPa